createdAt,value
2022-11-23T00:04:12.840Z,8.90
2022-11-23T00:09:14.434Z,8.73
2022-11-23T00:14:15.920Z,9.25
2022-11-23T00:19:17.279Z,8.95
2022-11-23T00:24:18.739Z,10.60
2022-11-23T00:29:20.193Z,9.43
2022-11-23T00:34:21.689Z,9.43
2022-11-23T00:39:23.353Z,10.95
2022-11-23T00:44:24.905Z,9.70
2022-11-23T00:49:26.288Z,11.15
2022-11-23T00:54:27.695Z,11.10
2022-11-23T00:59:29.924Z,12.25
2022-11-23T01:04:31.653Z,10.30
2022-11-23T01:09:33.228Z,11.32
2022-11-23T01:14:35.214Z,10.95
2022-11-23T01:19:36.633Z,10.38
2022-11-23T01:24:38.080Z,9.57
2022-11-23T01:29:39.443Z,10.05
2022-11-23T01:34:40.870Z,9.63
2022-11-23T01:39:42.273Z,6.70
2022-11-23T01:44:44.124Z,7.20
2022-11-23T01:49:51.483Z,8.43
2022-11-23T01:54:56.011Z,7.25
2022-11-23T01:59:57.974Z,7.35
2022-11-23T02:05:01.495Z,8.80
2022-11-23T02:10:03.278Z,6.82
2022-11-23T02:15:05.128Z,6.07
2022-11-23T02:20:11.226Z,6.53
2022-11-23T02:25:22.955Z,6.93
2022-11-23T02:30:25.383Z,6.72
2022-11-23T02:35:26.854Z,6.72
2022-11-23T02:40:33.871Z,6.03
2022-11-23T02:45:50.102Z,6.88
2022-11-23T02:50:52.051Z,6.37
2022-11-23T02:55:53.495Z,5.97
2022-11-23T03:00:54.876Z,6.18
2022-11-23T03:05:56.277Z,6.53
2022-11-23T03:10:57.681Z,5.00
2022-11-23T03:15:59.387Z,6.03
2022-11-23T03:21:05.587Z,5.65
2022-11-23T03:26:12.539Z,4.45
2022-11-23T03:31:14.612Z,4.80
2022-11-23T03:36:16.057Z,4.85
2022-11-23T03:41:17.582Z,4.72
2022-11-23T03:46:18.981Z,4.43
2022-11-23T03:51:20.432Z,4.03
2022-11-23T03:56:21.863Z,3.83
2022-11-23T04:01:23.309Z,4.45
2022-11-23T04:06:24.961Z,3.60
2022-11-23T04:11:26.351Z,4.50
2022-11-23T04:16:27.726Z,4.18
2022-11-23T04:21:29.222Z,4.30
2022-11-23T04:26:30.636Z,4.15
2022-11-23T04:31:32.671Z,3.95
2022-11-23T04:36:34.118Z,3.80
2022-11-23T04:41:35.515Z,4.35
2022-11-23T04:46:36.878Z,5.28
2022-11-23T04:51:38.677Z,4.13
2022-11-23T04:56:40.040Z,4.72
2022-11-23T05:01:41.599Z,4.15
2022-11-23T05:06:43.199Z,3.95
2022-11-23T05:11:44.735Z,3.22
2022-11-23T05:16:46.211Z,3.80
2022-11-23T05:21:47.596Z,3.70
2022-11-23T05:26:53.365Z,4.35
2022-11-23T05:31:57.549Z,3.25
2022-11-23T05:36:58.920Z,3.22
2022-11-23T05:42:00.290Z,3.90
2022-11-23T05:47:01.681Z,2.83
2022-11-23T05:52:03.518Z,3.35
2022-11-23T05:57:04.976Z,4.10
2022-11-23T06:02:06.522Z,3.53
2022-11-23T06:07:07.976Z,2.97
2022-11-23T06:12:09.479Z,3.08
2022-11-23T06:17:10.990Z,3.83
2022-11-23T06:22:12.590Z,3.78
2022-11-23T06:27:18.335Z,3.17
2022-11-23T06:32:19.947Z,3.67
2022-11-23T06:37:21.359Z,4.53
2022-11-23T06:42:38.474Z,3.53
2022-11-23T06:47:40.234Z,4.00
2022-11-23T06:52:41.662Z,2.88
2022-11-23T06:57:43.229Z,3.30
2022-11-23T07:02:50.661Z,4.40
2022-11-23T07:07:52.089Z,4.00
2022-11-23T07:12:53.537Z,4.60
2022-11-23T07:17:55.126Z,4.68
2022-11-23T07:23:01.567Z,4.68
2022-11-23T07:28:04.907Z,5.00
2022-11-23T07:33:09.217Z,4.75
2022-11-23T07:38:10.803Z,5.22
2022-11-23T07:43:12.243Z,5.93
2022-11-23T07:48:13.717Z,3.42
2022-11-23T07:53:15.108Z,3.22
2022-11-23T07:58:16.556Z,3.35
2022-11-23T08:03:33.309Z,3.58
2022-11-23T08:08:35.307Z,3.88
2022-11-23T08:13:39.794Z,3.58
2022-11-23T08:18:41.329Z,2.92
2022-11-23T08:23:42.719Z,3.20
2022-11-23T08:28:44.811Z,3.70
2022-11-23T08:33:46.268Z,3.90
2022-11-23T08:38:51.280Z,3.45
2022-11-23T08:43:52.729Z,3.65
2022-11-23T08:48:54.146Z,3.33
2022-11-23T08:53:55.712Z,3.40
2022-11-23T08:58:57.118Z,2.58
2022-11-23T09:03:58.501Z,3.28
2022-11-23T09:09:02.404Z,3.92
2022-11-23T09:14:03.994Z,5.93
2022-11-23T09:19:07.253Z,3.38
2022-11-23T09:24:12.433Z,2.33
2022-11-23T09:29:14.380Z,3.45
2022-11-23T09:34:15.867Z,2.80
2022-11-23T09:39:18.561Z,3.13
2022-11-23T09:44:45.192Z,3.05
2022-11-23T09:50:04.927Z,3.13
2022-11-23T09:55:29.670Z,2.35
2022-11-23T10:00:38.886Z,3.42
2022-11-23T10:05:40.460Z,3.33
2022-11-23T10:10:49.032Z,2.90
2022-11-23T10:16:13.992Z,2.90
2022-11-23T10:21:52.414Z,2.58
2022-11-23T10:26:53.986Z,3.83
2022-11-23T10:31:57.436Z,3.50
2022-11-23T10:36:59.250Z,3.17
2022-11-23T10:42:07.304Z,2.80
2022-11-23T10:47:08.812Z,2.58
2022-11-23T10:52:29.844Z,2.38
2022-11-23T10:57:33.348Z,3.00
2022-11-23T11:02:40.632Z,2.47
2022-11-23T11:07:42.192Z,2.40
2022-11-23T11:12:51.444Z,2.42
2022-11-23T11:17:57.751Z,1.80
2022-11-23T11:23:17.284Z,2.28
2022-11-23T11:28:25.490Z,2.38
2022-11-23T11:33:53.149Z,2.45
2022-11-23T11:39:17.346Z,1.70
2022-11-23T11:44:22.895Z,2.58
2022-11-23T11:49:31.741Z,1.95
2022-11-23T11:54:44.144Z,2.60
2022-11-23T11:59:49.982Z,1.65
2022-11-23T12:05:16.287Z,2.17
2022-11-23T12:10:24.701Z,2.03
2022-11-23T12:15:48.949Z,1.58
2022-11-23T12:21:08.294Z,2.85
2022-11-23T12:26:21.547Z,3.38
2022-11-23T12:31:44.463Z,2.40
2022-11-23T12:37:19.373Z,2.22
2022-11-23T12:42:38.789Z,1.88
2022-11-23T12:47:49.628Z,1.77
2022-11-23T12:53:01.492Z,1.60
2022-11-23T12:58:10.358Z,2.78
2022-11-23T13:03:49.550Z,1.48
2022-11-23T13:09:18.079Z,2.25
2022-11-23T13:14:50.623Z,1.92
2022-11-23T13:20:08.465Z,1.88
2022-11-23T13:25:09.871Z,1.73
2022-11-23T13:30:27.338Z,1.38
2022-11-23T13:35:33.362Z,2.17
2022-11-23T13:40:36.519Z,3.13
2022-11-23T13:45:38.178Z,3.10
2022-11-23T13:50:56.085Z,1.63
2022-11-23T13:56:16.381Z,2.08
2022-11-23T14:01:55.369Z,2.05
2022-11-23T14:07:01.564Z,2.05
2022-11-23T14:12:12.110Z,1.73
2022-11-23T14:17:36.690Z,2.55
2022-11-23T14:23:07.123Z,1.60
2022-11-23T14:28:29.493Z,2.33
2022-11-23T14:33:39.457Z,1.35
2022-11-23T14:39:08.844Z,1.73
2022-11-23T14:44:14.283Z,2.10
2022-11-23T14:49:15.831Z,1.88
2022-11-23T14:54:17.381Z,2.95
2022-11-23T14:59:28.648Z,2.17
2022-11-23T15:04:38.507Z,2.28
2022-11-23T15:10:22.019Z,1.48
2022-11-23T15:15:34.014Z,2.00
2022-11-23T15:20:45.340Z,2.08
2022-11-23T15:25:59.174Z,2.65
2022-11-23T15:31:00.634Z,2.28
2022-11-23T15:36:03.883Z,2.33
2022-11-23T15:41:05.604Z,1.75
2022-11-23T15:46:12.738Z,2.45
2022-11-23T15:51:47.213Z,3.67
2022-11-23T15:56:52.275Z,2.78
2022-11-23T16:01:54.866Z,2.13
2022-11-23T16:06:58.341Z,2.97
2022-11-23T16:11:59.975Z,3.15
2022-11-23T16:17:16.925Z,2.92
2022-11-23T16:27:40.301Z,2.40
2022-11-23T16:32:41.749Z,3.50
2022-11-23T16:37:43.515Z,2.97
2022-11-23T16:42:45.770Z,3.70
2022-11-23T16:47:56.040Z,3.88
2022-11-23T16:53:00.832Z,3.50
2022-11-23T16:58:03.603Z,3.53
2022-11-23T17:03:14.913Z,3.97
2022-11-23T17:08:23.000Z,4.35
2022-11-23T17:13:28.584Z,2.92
2022-11-23T17:18:30.079Z,3.10
2022-11-23T17:23:31.506Z,2.88
2022-11-23T17:28:35.078Z,2.90
2022-11-23T17:33:38.735Z,4.45
2022-11-23T17:38:44.422Z,3.97
2022-11-23T17:43:47.380Z,4.05
2022-11-23T17:48:54.086Z,3.50
2022-11-23T17:58:57.600Z,4.30
2022-11-23T18:04:01.471Z,3.35
2022-11-23T18:09:04.618Z,3.90
2022-11-23T18:14:07.429Z,4.55
2022-11-23T18:19:08.897Z,4.32
2022-11-23T18:24:10.444Z,4.45
2022-11-23T18:29:16.902Z,5.20
2022-11-23T18:34:18.799Z,4.35
2022-11-23T18:39:20.333Z,4.57
2022-11-23T18:44:21.928Z,4.82
2022-11-23T18:49:23.842Z,5.18
2022-11-23T18:54:25.502Z,5.07
2022-11-23T18:59:50.413Z,5.68
2022-11-23T19:04:49.893Z,8.57
2022-11-23T19:09:51.471Z,4.80
2022-11-23T19:14:54.068Z,6.68
2022-11-23T19:19:55.490Z,4.82
2022-11-23T19:24:56.908Z,5.53
2022-11-23T19:29:58.355Z,5.85
2022-11-23T19:34:59.886Z,7.10
2022-11-23T19:40:01.285Z,5.75
2022-11-23T19:45:06.564Z,5.47
2022-11-23T19:50:08.926Z,5.60
2022-11-23T19:55:10.706Z,5.85
2022-11-23T20:00:13.234Z,5.78
2022-11-23T20:05:15.505Z,7.28
2022-11-23T20:10:17.751Z,5.97
2022-11-23T20:15:19.418Z,6.55
2022-11-23T20:20:21.872Z,6.28
2022-11-23T20:25:23.468Z,6.47
2022-11-23T20:30:31.641Z,6.22
2022-11-23T20:35:33.138Z,6.50
2022-11-23T20:40:35.700Z,5.85
2022-11-23T20:45:37.366Z,5.68
2022-11-23T20:50:39.315Z,5.35
2022-11-23T20:55:40.806Z,5.75
2022-11-23T21:00:45.044Z,5.70
2022-11-23T21:05:50.876Z,7.70
2022-11-23T21:11:11.072Z,7.07
2022-11-23T21:16:12.456Z,7.82
2022-11-23T21:21:14.274Z,7.07
2022-11-23T21:26:16.033Z,6.80
2022-11-23T21:31:17.633Z,7.47
2022-11-23T21:36:19.772Z,6.82
2022-11-23T21:41:21.251Z,5.68
2022-11-23T21:46:24.715Z,6.32
2022-11-23T21:51:30.067Z,6.55
2022-11-23T21:56:31.785Z,6.32
2022-11-23T22:01:35.040Z,6.55
2022-11-23T22:06:37.754Z,6.43
2022-11-23T22:11:41.230Z,5.57
2022-11-23T22:16:47.243Z,4.80
2022-11-23T22:21:48.817Z,6.93
2022-11-23T22:26:50.412Z,6.18
2022-11-23T22:31:51.886Z,7.63
2022-11-23T22:36:54.172Z,5.03
2022-11-23T22:41:55.820Z,5.25
2022-11-23T22:46:57.449Z,5.97
2022-11-23T22:52:00.035Z,4.95
2022-11-23T22:57:04.480Z,6.97
2022-11-23T23:02:06.021Z,6.60
2022-11-23T23:07:07.694Z,8.05
2022-11-23T23:12:10.642Z,5.72
2022-11-23T23:17:12.192Z,6.10
2022-11-23T23:22:13.726Z,7.88
2022-11-23T23:27:16.665Z,6.00
2022-11-23T23:32:19.618Z,6.88
2022-11-23T23:37:22.093Z,5.13
2022-11-23T23:42:23.617Z,5.07
2022-11-23T23:47:25.881Z,5.55
2022-11-23T23:52:27.984Z,5.10
2022-11-23T23:57:30.968Z,4.90
